Ryoan Maru No.27 — JD3700 — position and weather

sailwx.info

Track history (hours):
 
Tides and Currents Weather Stations Pressure Air Temp Water Temp Dewpoint Dewpoint Depression Visibility Wind Speed Wind Dir Waves Ship Positions

Ryoan Maru No.27

Last reported at 2017-Nov-02 07:23 UTC. Time now 2017-Nov-25 02:08 UTC.
Position N 34°44' E 139°11'.
Warning: this ship's position is 22 days out of date.

Length 75 m; draft 3.8 m.

Type: Cargo ship. MMSI: 431005402.

Date/timePositionNaut miles runAvg speedWind from/ knotsBaromVisibWave heightAir tempDewpointWater temp
2017-Nov-02 07:23N 34°44' E 139°11'4211.7
2017-Nov-02 03:50N 34°55' E 139°60'  
2017-Oct-25 23:40N 34°51' E 139°48'212.2
2017-Oct-25 23:28N 34°51' E 139°46'612.5
2017-Oct-25 22:59N 34°50' E 139°38'23510.0
2017-Oct-24 23:32N 34°09' E 134°58'113.5
2017-Oct-24 23:29N 34°09' E 134°58'1712.4
2017-Oct-24 22:05N 34°25' E 135°07'113.9
2017-Oct-24 21:59N 34°26' E 135°08'713.6
2017-Oct-24 21:29N 34°30' E 135°15'612.1
2017-Oct-24 21:00N 34°33' E 135°21'0 0.0
2017-Oct-24 19:35N 34°33' E 135°21'0 0.0
2017-Oct-24 19:23N 34°33' E 135°21'0 0.0
2017-Oct-24 18:52N 34°33' E 135°21'0 0.0
2017-Oct-24 18:10N 34°33' E 135°21'0 0.3
2017-Oct-24 17:58N 34°33' E 135°21'0 0.0
2017-Oct-24 17:29N 34°33' E 135°21'0 0.0
2017-Oct-24 15:52N 34°33' E 135°21'0 0.0
2017-Oct-24 15:22N 34°33' E 135°21'0 0.0
2017-Oct-24 11:40N 34°33' E 135°21'0 0.6
2017-Oct-24 11:30N 34°33' E 135°21'4 7.9
2017-Oct-24 11:00N 34°34' E 135°26'0 0.0
2017-Oct-23 22:09N 34°34' E 135°26'0 0.1
2017-Oct-23 21:58N 34°34' E 135°26'3 6.0
2017-Oct-23 21:29N 34°33' E 135°22'1 1.8
2017-Oct-23 20:46N 34°33' E 135°21'0 0.0
2017-Oct-23 19:41N 34°33' E 135°21'0 0.0
2017-Oct-23 19:29N 34°33' E 135°21'0 0.0
2017-Oct-23 18:41N 34°33' E 135°21'0 0.0
2017-Oct-23 18:29N 34°33' E 135°21'0 0.0
2017-Oct-23 17:59N 34°33' E 135°21'0 0.0
2017-Oct-23 17:29N 34°33' E 135°21'0 0.0
2017-Oct-23 16:59N 34°33' E 135°21'0 0.0
2017-Oct-23 16:28N 34°33' E 135°21'0 0.0
2017-Oct-23 15:59N 34°33' E 135°21'0 0.0
2017-Oct-23 15:29N 34°33' E 135°21'0 0.0
2017-Oct-23 14:59N 34°33' E 135°21'0 0.0
2017-Oct-23 14:29N 34°33' E 135°21'0 0.0
2017-Oct-23 13:52N 34°33' E 135°21'0 0.1
2017-Oct-23 13:29N 34°33' E 135°21'0 0.0
2017-Oct-23 12:59N 34°33' E 135°21'0 0.0
2017-Oct-23 12:29N 34°33' E 135°21'0 0.1
2017-Oct-23 11:47N 34°33' E 135°21'0 0.0
2017-Oct-23 11:17N 34°33' E 135°21'0 0.1
2017-Oct-23 10:47N 34°33' E 135°21'0 0.2
2017-Oct-23 10:28N 34°33' E 135°21'0 0.1
2017-Oct-23 09:59N 34°33' E 135°21'0 0.1
2017-Oct-23 09:28N 34°33' E 135°21'0 0.1
2017-Oct-23 08:58N 34°33' E 135°21'0 0.0
2017-Oct-23 08:29N 34°33' E 135°21'0 0.0
2017-Oct-23 07:53N 34°33' E 135°21'0 0.0
2017-Oct-23 07:29N 34°33' E 135°21'  
Track history (hours):
 
Tides and Currents Weather Stations Pressure Air Temp Water Temp Dewpoint Dewpoint Depression Visibility Wind Speed Wind Dir Waves Ship Positions

Ryoan Maru No.27

Last reported at 2017-Nov-02 07:23 UTC. Time now 2017-Nov-25 02:08 UTC.
Position N 34°44' E 139°11'.
Warning: this ship's position is 22 days out of date.

Length 75 m; draft 3.8 m.

Type: Cargo ship. MMSI: 431005402.

Date/timePositionNaut miles runAvg speedWind from/ knotsBaromVisibWave heightAir tempDewpointWater temp
2017-Nov-02 07:23N 34°44' E 139°11'4211.7
2017-Nov-02 03:50N 34°55' E 139°60'  
2017-Oct-25 23:40N 34°51' E 139°48'212.2
2017-Oct-25 23:28N 34°51' E 139°46'612.5
2017-Oct-25 22:59N 34°50' E 139°38'23510.0
2017-Oct-24 23:32N 34°09' E 134°58'113.5
2017-Oct-24 23:29N 34°09' E 134°58'1712.4
2017-Oct-24 22:05N 34°25' E 135°07'113.9
2017-Oct-24 21:59N 34°26' E 135°08'713.6
2017-Oct-24 21:29N 34°30' E 135°15'612.1
2017-Oct-24 21:00N 34°33' E 135°21'0 0.0
2017-Oct-24 19:35N 34°33' E 135°21'0 0.0
2017-Oct-24 19:23N 34°33' E 135°21'0 0.0
2017-Oct-24 18:52N 34°33' E 135°21'0 0.0
2017-Oct-24 18:10N 34°33' E 135°21'0 0.3
2017-Oct-24 17:58N 34°33' E 135°21'0 0.0
2017-Oct-24 17:29N 34°33' E 135°21'0 0.0
2017-Oct-24 15:52N 34°33' E 135°21'0 0.0
2017-Oct-24 15:22N 34°33' E 135°21'0 0.0
2017-Oct-24 11:40N 34°33' E 135°21'0 0.6
2017-Oct-24 11:30N 34°33' E 135°21'4 7.9
2017-Oct-24 11:00N 34°34' E 135°26'0 0.0
2017-Oct-23 22:09N 34°34' E 135°26'0 0.1
2017-Oct-23 21:58N 34°34' E 135°26'3 6.0
2017-Oct-23 21:29N 34°33' E 135°22'1 1.8
2017-Oct-23 20:46N 34°33' E 135°21'0 0.0
2017-Oct-23 19:41N 34°33' E 135°21'0 0.0
2017-Oct-23 19:29N 34°33' E 135°21'0 0.0
2017-Oct-23 18:41N 34°33' E 135°21'0 0.0
2017-Oct-23 18:29N 34°33' E 135°21'0 0.0
2017-Oct-23 17:59N 34°33' E 135°21'0 0.0
2017-Oct-23 17:29N 34°33' E 135°21'0 0.0
2017-Oct-23 16:59N 34°33' E 135°21'0 0.0
2017-Oct-23 16:28N 34°33' E 135°21'0 0.0
2017-Oct-23 15:59N 34°33' E 135°21'0 0.0
2017-Oct-23 15:29N 34°33' E 135°21'0 0.0
2017-Oct-23 14:59N 34°33' E 135°21'0 0.0
2017-Oct-23 14:29N 34°33' E 135°21'0 0.0
2017-Oct-23 13:52N 34°33' E 135°21'0 0.1
2017-Oct-23 13:29N 34°33' E 135°21'0 0.0
2017-Oct-23 12:59N 34°33' E 135°21'0 0.0
2017-Oct-23 12:29N 34°33' E 135°21'0 0.1
2017-Oct-23 11:47N 34°33' E 135°21'0 0.0
2017-Oct-23 11:17N 34°33' E 135°21'0 0.1
2017-Oct-23 10:47N 34°33' E 135°21'0 0.2
2017-Oct-23 10:28N 34°33' E 135°21'0 0.1
2017-Oct-23 09:59N 34°33' E 135°21'0 0.1
2017-Oct-23 09:28N 34°33' E 135°21'0 0.1
2017-Oct-23 08:58N 34°33' E 135°21'0 0.0
2017-Oct-23 08:29N 34°33' E 135°21'0 0.0
2017-Oct-23 07:53N 34°33' E 135°21'0 0.0
2017-Oct-23 07:29N 34°33' E 135°21'  

Dump ship's entire track history